Time;durP1;ratioP1;P1;durP2;ratioP2;P2;SDS_P1;SDS_P2;PMS_P1;PMS_P2;Temp;Humidity;BMP_temperature;BMP_pressure;BME280_temperature;BME280_humidity;BME280_pressure;Samples;Min_cycle;Max_cycle;Signal;HPM_P1;HPM_P2
2022/02/13 11:29:15;;;;;;;4.78;4.45;;;5.60;99.90;;;;;;5045645;27;1944903;-70
2022/02/13 11:31:45;;;;;;;8.55;4.45;;;5.70;99.90;;;;;;5090748;28;20180;-71
2022/02/13 11:34:16;;;;;;;3.60;3.40;;;5.70;99.90;;;;;;5090790;28;20251;-70
2022/02/13 11:36:49;;;;;;;4.13;3.83;;;5.70;99.90;;;;;;5090857;28;20571;-70
2022/02/13 11:39:30;;;;;;;5.70;4.53;;;5.80;99.90;;;;;;5090804;28;20174;-71
2022/02/13 11:41:58;;;;;;;4.30;4.00;;;5.80;99.90;;;;;;5090559;28;20178;-71
2022/02/13 11:44:39;;;;;;;4.72;4.05;;;5.90;99.90;;;;;;5090624;28;20263;-71
2022/02/13 11:47:08;;;;;;;4.32;3.92;;;6.00;99.90;;;;;;5090463;28;20168;-71
2022/02/13 11:50:11;;;;;;;4.78;4.45;;;6.10;99.90;;;;;;5072487;28;20262;-71
2022/02/13 11:52:51;;;;;;;4.20;3.78;;;6.20;99.90;;;;;;5090524;28;20252;-71
2022/02/13 11:55:18;;;;;;;4.10;3.80;;;6.30;99.90;;;;;;5090427;28;20241;-71
2022/02/13 11:58:19;;;;;;;3.60;3.40;;;6.30;99.90;;;;;;5090440;28;20243;-71
2022/02/13 12:00:51;;;;;;;4.20;3.90;;;6.40;99.90;;;;;;4988802;28;20648;-71
2022/02/13 12:03:32;;;;;;;4.07;3.58;;;6.50;99.90;;;;;;5074176;28;20190;-71
2022/02/13 12:06:04;;;;;;;4.65;3.30;;;6.50;99.90;;;;;;5090253;28;20164;-71
2022/02/13 12:08:30;;;;;;;4.07;3.75;;;6.70;99.90;;;;;;5090052;28;20207;-71
2022/02/13 12:11:06;;;;;;;3.90;3.60;;;6.80;99.90;;;;;;5090192;28;20168;-71
2022/02/13 12:13:36;;;;;;;4.25;3.85;;;6.80;99.90;;;;;;5090100;28;20171;-71
2022/02/13 12:16:03;;;;;;;4.97;3.75;;;6.90;99.90;;;;;;5071841;28;20195;-71
2022/02/13 12:18:29;;;;;;;5.82;3.90;;;7.00;99.90;;;;;;5071809;28;20183;-71
2022/02/13 12:21:12;;;;;;;3.50;3.20;;;7.10;99.90;;;;;;5085906;28;20548;-71
2022/02/13 12:23:38;;;;;;;3.60;3.40;;;7.20;99.90;;;;;;5069678;28;20179;-71
2022/02/13 12:26:04;;;;;;;4.32;3.92;;;7.30;99.90;;;;;;5069563;28;20173;-71
2022/02/13 12:28:35;;;;;;;3.80;3.42;;;7.40;99.90;;;;;;5069281;28;20223;-71
2022/02/13 12:31:03;;;;;;;5.07;4.22;;;7.40;99.90;;;;;;5069581;28;20164;-71
2022/02/13 12:33:31;;;;;;;6.35;3.75;;;7.50;99.90;;;;;;5069406;28;20177;-71
2022/02/13 12:35:58;;;;;;;3.45;3.15;;;7.60;99.90;;;;;;5069352;28;20161;-71
2022/02/13 12:38:27;;;;;;;5.93;3.58;;;7.70;99.90;;;;;;5050898;28;20594;-71
2022/02/13 12:40:56;;;;;;;4.82;3.33;;;7.70;99.90;;;;;;5055660;28;20169;-71
2022/02/13 12:43:24;;;;;;;4.18;3.85;;;7.70;99.90;;;;;;5056378;28;20275;-71
2022/02/13 12:45:51;;;;;;;6.47;3.53;;;7.80;99.90;;;;;;5038124;28;20173;-71
2022/02/13 12:48:21;;;;;;;3.95;3.65;;;7.90;99.90;;;;;;5055896;28;20197;-71
2022/02/13 12:50:49;;;;;;;4.32;4.00;;;7.90;99.90;;;;;;5055951;28;20165;-71
2022/02/13 12:53:21;;;;;;;5.07;3.63;;;7.90;99.90;;;;;;5055721;28;20185;-71
2022/02/13 12:55:47;;;;;;;4.55;3.38;;;7.80;99.90;;;;;;5055735;28;20532;-71
2022/02/13 12:58:14;;;;;;;6.95;3.65;;;7.80;99.90;;;;;;5055518;28;20181;-71
2022/02/13 13:00:49;;;;;;;4.10;3.55;;;7.80;99.90;;;;;;5055702;28;20192;-71
2022/02/13 13:03:18;;;;;;;4.85;4.32;;;7.80;99.90;;;;;;5055508;28;20171;-71
2022/02/13 13:05:49;;;;;;;4.47;3.95;;;7.80;99.90;;;;;;5055558;28;20165;-71
2022/02/13 13:08:20;;;;;;;4.32;3.92;;;7.70;99.90;;;;;;5055379;28;20335;-71
2022/02/13 13:11:00;;;;;;;4.95;3.92;;;7.80;99.90;;;;;;5055326;28;20169;-70
2022/02/13 13:13:28;;;;;;;4.20;3.80;;;7.90;99.90;;;;;;5055439;28;20165;-71
2022/02/13 13:16:14;;;;;;;4.05;3.65;;;8.00;99.90;;;;;;5055386;28;20165;-71
2022/02/13 13:18:55;;;;;;;4.78;4.15;;;8.10;99.90;;;;;;5055909;28;20180;-71
2022/02/13 13:21:38;;;;;;;4.68;4.25;;;8.20;99.90;;;;;;5055291;28;20238;-71
2022/02/13 13:24:06;;;;;;;4.18;3.45;;;8.20;99.90;;;;;;5055175;28;20523;-71
2022/02/13 13:26:32;;;;;;;5.10;3.85;;;8.30;99.90;;;;;;5055147;28;20165;-71
2022/02/13 13:28:58;;;;;;;5.13;3.88;;;8.40;99.90;;;;;;5054881;28;20227;-71
2022/02/13 13:31:25;;;;;;;5.65;3.85;;;8.60;99.90;;;;;;5055148;28;20169;-71
2022/02/13 13:34:01;;;;;;;7.38;4.53;;;8.70;99.90;;;;;;5055005;28;20197;-71
2022/02/13 13:36:31;;;;;;;4.53;3.95;;;8.80;99.90;;;;;;5054912;28;20165;-71
2022/02/13 13:38:56;;;;;;;4.70;4.40;;;8.90;99.90;;;;;;5037049;28;20172;-71
2022/02/13 13:41:33;;;;;;;3.60;3.40;;;9.00;99.90;;;;;;5054878;28;20169;-71
2022/02/13 13:44:15;;;;;;;11.75;5.38;;;9.10;99.90;;;;;;5054933;28;20165;-71
2022/02/13 13:46:40;;;;;;;7.72;4.50;;;9.10;99.90;;;;;;5054800;28;20219;-71
2022/02/13 13:49:06;;;;;;;4.72;4.25;;;9.20;99.90;;;;;;5054596;28;20701;-71
2022/02/13 13:51:33;;;;;;;4.57;4.18;;;9.20;99.90;;;;;;5053667;28;20166;-71
2022/02/13 13:53:58;;;;;;;5.80;4.32;;;9.20;99.90;;;;;;5054639;28;20571;-71
2022/02/13 13:56:24;;;;;;;7.10;4.55;;;9.20;99.90;;;;;;5054514;28;20165;-71
2022/02/13 13:58:49;;;;;;;4.45;3.65;;;9.20;99.90;;;;;;5054547;28;20204;-71
2022/02/13 14:01:15;;;;;;;4.72;4.32;;;9.20;99.90;;;;;;5054459;28;20630;-71
2022/02/13 14:03:40;;;;;;;5.88;3.90;;;9.10;99.90;;;;;;5036433;28;20549;-71
2022/02/13 14:06:06;;;;;;;4.88;4.47;;;9.10;99.90;;;;;;5054386;28;20177;-71
2022/02/13 14:08:31;;;;;;;7.00;4.22;;;9.10;99.90;;;;;;5054317;28;20204;-71
2022/02/13 14:10:57;;;;;;;4.80;4.30;;;9.20;99.90;;;;;;5054318;28;20169;-71
2022/02/13 14:13:25;;;;;;;6.25;4.00;;;9.20;99.90;;;;;;5054326;28;20196;-71
2022/02/13 14:15:50;;;;;;;7.78;5.15;;;9.30;99.90;;;;;;5054305;28;20673;-71
2022/02/13 14:18:16;;;;;;;4.93;4.38;;;9.40;99.90;;;;;;5054215;28;20173;-71
2022/02/13 14:20:41;;;;;;;5.55;4.68;;;9.50;99.90;;;;;;5054142;28;20653;-71
2022/02/13 14:23:07;;;;;;;5.78;4.57;;;9.60;99.90;;;;;;5054117;28;20265;-71
2022/02/13 14:25:33;;;;;;;5.85;4.82;;;9.70;99.90;;;;;;5054128;28;20169;-71
2022/02/13 14:27:58;;;;;;;5.57;5.07;;;9.80;99.90;;;;;;5053816;28;20270;-71
2022/02/13 14:30:24;;;;;;;6.00;4.50;;;10.00;99.90;;;;;;5054031;28;20162;-71
2022/02/13 14:32:49;;;;;;;5.45;4.93;;;10.00;99.90;;;;;;5053928;28;20240;-71
2022/02/13 14:35:15;;;;;;;6.43;5.68;;;10.00;99.90;;;;;;5053940;28;20196;-71
2022/02/13 14:37:44;;;;;;;5.50;4.88;;;10.00;99.90;;;;;;5053809;28;20623;-71
2022/02/13 14:40:10;;;;;;;5.35;4.75;;;10.20;99.90;;;;;;5053812;28;20169;-71
2022/02/13 14:42:36;;;;;;;6.03;4.97;;;10.30;99.90;;;;;;5053544;28;20700;-71
2022/02/13 14:45:03;;;;;;;8.82;5.60;;;10.40;99.90;;;;;;5053730;28;20177;-71
2022/02/13 14:47:28;;;;;;;6.90;5.03;;;10.50;99.90;;;;;;5053507;28;20295;-71
2022/02/13 14:49:54;;;;;;;5.45;4.93;;;10.50;99.90;;;;;;5035877;28;20204;-71
2022/02/13 14:52:21;;;;;;;5.30;4.80;;;10.50;99.90;;;;;;5053667;28;20165;-71
2022/02/13 14:54:47;;;;;;;7.70;5.65;;;10.60;99.90;;;;;;5053582;28;20169;-71
2022/02/13 14:57:14;;;;;;;7.50;5.70;;;10.50;99.90;;;;;;5053537;28;20215;-71
2022/02/13 14:59:40;;;;;;;7.75;5.05;;;10.50;99.90;;;;;;5053514;28;20158;-71
2022/02/13 15:02:06;;;;;;;10.00;5.40;;;10.60;99.90;;;;;;5053231;28;20694;-71
2022/02/13 15:04:31;;;;;;;7.43;6.28;;;10.60;99.90;;;;;;5053465;28;20210;-71
2022/02/13 15:06:57;;;;;;;7.55;5.50;;;10.60;99.90;;;;;;5053380;28;20200;-71
2022/02/13 15:09:23;;;;;;;9.75;5.32;;;10.60;99.90;;;;;;5053444;28;20165;-71
2022/02/13 15:11:49;;;;;;;10.32;5.72;;;10.60;99.90;;;;;;5035474;28;20646;-71
2022/02/13 15:14:15;;;;;;;7.68;4.82;;;10.60;99.90;;;;;;5035454;28;20223;-71
2022/02/13 15:16:41;;;;;;;7.18;5.63;;;10.60;99.90;;;;;;5053361;28;20165;-71
2022/02/13 15:19:09;;;;;;;6.53;5.00;;;10.60;99.90;;;;;;5053251;28;20569;-71
2022/02/13 15:21:36;;;;;;;7.68;5.00;;;10.80;99.90;;;;;;5053168;28;20185;-71
2022/02/13 15:24:01;;;;;;;7.90;5.82;;;10.40;99.90;;;;;;5053207;28;20183;-71
2022/02/13 15:26:27;;;;;;;6.95;5.38;;;10.30;99.90;;;;;;5053225;28;20177;-71
2022/02/13 15:28:53;;;;;;;5.47;4.97;;;10.20;99.90;;;;;;5052878;28;20228;-71
2022/02/13 15:31:19;;;;;;;8.88;5.32;;;10.10;99.90;;;;;;5053137;28;20614;-70
2022/02/13 15:33:45;;;;;;;6.03;5.20;;;10.00;99.90;;;;;;5053138;28;20165;-70
2022/02/13 15:36:10;;;;;;;8.70;5.20;;;9.90;99.90;;;;;;5052864;28;20688;-71
2022/02/13 15:38:36;;;;;;;8.00;5.35;;;9.90;99.90;;;;;;5053119;28;20184;-71
2022/02/13 15:41:02;;;;;;;6.32;5.10;;;9.70;99.90;;;;;;5053036;28;20638;-71
2022/02/13 15:43:28;;;;;;;6.00;5.50;;;9.50;99.90;;;;;;5052940;28;20177;-71
2022/02/13 15:45:53;;;;;;;8.15;5.13;;;9.50;99.90;;;;;;5052962;28;20233;-70
2022/02/13 15:48:19;;;;;;;10.45;5.38;;;9.20;99.90;;;;;;5052869;28;20208;-70
2022/02/13 15:50:45;;;;;;;8.20;5.07;;;9.20;99.90;;;;;;5052978;28;20169;-70
2022/02/13 15:53:11;;;;;;;7.50;4.93;;;9.10;99.90;;;;;;5052919;28;20171;-70
2022/02/13 15:55:37;;;;;;;7.03;5.03;;;8.90;99.90;;;;;;5052930;28;20617;-70
2022/02/13 15:58:03;;;;;;;11.45;5.13;;;8.80;99.90;;;;;;5052927;28;20177;-70
2022/02/13 16:00:29;;;;;;;9.65;5.28;;;8.70;99.90;;;;;;5052844;28;20165;-69
2022/02/13 16:02:55;;;;;;;7.07;4.65;;;8.60;99.90;;;;;;5052804;28;20504;-70
2022/02/13 16:05:21;;;;;;;5.00;4.50;;;8.50;99.90;;;;;;5052820;28;20176;-70
2022/02/13 16:07:51;;;;;;;10.48;5.57;;;8.50;99.90;;;;;;5052704;28;20276;-70
2022/02/13 16:10:17;;;;;;;6.47;4.93;;;8.40;99.90;;;;;;5052900;28;20166;-70
2022/02/13 16:12:43;;;;;;;9.45;5.97;;;8.30;99.90;;;;;;5052740;28;20180;-70
2022/02/13 16:15:09;;;;;;;5.95;5.10;;;8.30;99.90;;;;;;5055015;28;20227;-70
2022/02/13 16:17:35;;;;;;;10.98;5.80;;;8.20;99.90;;;;;;5056533;28;20639;-70
2022/02/13 16:20:02;;;;;;;6.13;5.50;;;8.10;99.90;;;;;;5056446;28;20654;-70
2022/02/13 16:22:28;;;;;;;9.30;5.50;;;8.00;99.90;;;;;;5056330;28;20291;-70
2022/02/13 16:24:53;;;;;;;9.73;6.15;;;8.00;99.90;;;;;;5056428;28;20188;-70
2022/02/13 16:27:19;;;;;;;8.60;5.68;;;7.90;99.90;;;;;;5056006;28;20258;-70
2022/02/13 16:29:44;;;;;;;6.90;5.30;;;7.80;99.90;;;;;;5056322;28;20181;-70
2022/02/13 16:32:10;;;;;;;6.85;5.07;;;7.80;99.90;;;;;;5056270;28;20278;-70
2022/02/13 16:34:36;;;;;;;7.28;4.93;;;7.70;99.90;;;;;;5056419;28;20180;-70
2022/02/13 16:37:02;;;;;;;14.48;5.45;;;7.60;99.90;;;;;;5038017;28;20169;-70
2022/02/13 16:39:28;;;;;;;7.90;4.55;;;7.60;99.90;;;;;;5055988;28;20541;-70
2022/02/13 16:41:54;;;;;;;9.50;6.43;;;7.50;99.90;;;;;;5055875;28;20165;-70
2022/02/13 16:44:20;;;;;;;11.35;5.65;;;7.50;99.90;;;;;;5055842;28;20165;-70
